Pagrindinis puslapis
METAR-TAF:

METAR-TAF

Oro uostai :

Ljungbyhed, Švedija

platuma: 56-04N, ilguma: 013-12E, Aukštis: 43 m

Dabartinis oras

Ataskaita buvo paskelbta 18 minutes, ne 22:20 UTC
Vėjas 6 kt iš Pietų
Temperatūra 15°C
Drėgmė 77%
Slėgis 1010 hPa
Matomumas 10 km arba daugiau

METAR: ESTL 162220Z AUTO 17006KT 9999 FEW026/// SCT048/// BKN066/// 15/11 Q1010

Laikas: 00:38 (22:38 UTC)


TAF: trūkstamas

Orai ataskaitas ir orų prognozės (METAR, TAF).

turimą stotys yra geltonos ir raudonos taškus žemėlapyje.

Perkelti pele per norėdami pamatyti stoties vardą.

Tada spustelėkite, norėdami matyti oro stebėjimo ir prognozės.

Norėdami pakeisti žemėlapį: spustelėkite ant žalios mygtukų su juodo kryžiaus žemyn,; žalią mygtuką su brūkšneliu, jei norite nutolinti; arba žalių rodyklių gretimoms žemėlapius.


METAR-TAF: